Time;durP1;ratioP1;P1;durP2;ratioP2;P2;SDS_P1;SDS_P2;PMS_P1;PMS_P2;Temp;Humidity;BMP_temperature;BMP_pressure;BME280_temperature;BME280_humidity;BME280_pressure;Samples;Min_cycle;Max_cycle;Signal;HPM_P1;HPM_P2
2023/04/14 20:24:44;;;;;;;;;;;14.60;99.90;;;;;;4587917;19;20028;-30
2023/04/14 20:26:16;;;;;;;10.18;6.57;;;14.60;99.90;;;;;;4591477;19;20261;-30
2023/04/14 20:27:48;;;;;;;7.93;6.60;;;14.70;99.90;;;;;;4590919;19;20029;-30
2023/04/14 20:29:20;;;;;;;11.60;6.90;;;14.60;99.90;;;;;;4591319;19;20033;-30
2023/04/14 20:30:54;;;;;;;8.20;7.20;;;14.60;99.90;;;;;;4589897;19;20542;-30
2023/04/14 20:32:25;;;;;;;9.50;7.30;;;14.60;99.90;;;;;;4590245;19;20018;-30
2023/04/14 20:33:57;;;;;;;8.70;6.90;;;14.60;99.90;;;;;;4590907;19;20123;-30
2023/04/14 20:35:28;;;;;;;9.50;8.02;;;14.60;99.90;;;;;;4589773;19;20038;-30
2023/04/14 20:36:59;;;;;;;8.43;7.50;;;14.60;99.90;;;;;;4588062;19;20070;-31
2023/04/14 20:38:30;;;;;;;9.10;7.47;;;14.60;99.90;;;;;;4588354;19;20456;-30
2023/04/14 20:40:02;;;;;;;;;;;14.60;99.90;;;;;;4587572;19;20321;-30
2023/04/14 20:41:35;;;;;;;9.47;7.63;;;14.50;99.90;;;;;;4589694;19;20357;-30
2023/04/14 20:43:07;;;;;;;9.37;6.87;;;14.60;99.90;;;;;;4589906;19;20014;-30
2023/04/14 20:44:39;;;;;;;9.25;7.28;;;14.60;99.90;;;;;;4591132;19;20015;-31
2023/04/14 20:46:10;;;;;;;11.27;8.53;;;14.60;99.90;;;;;;4590372;19;20472;-29
2023/04/14 20:47:41;;;;;;;9.30;8.02;;;14.60;99.90;;;;;;4590532;19;20023;-30
2023/04/14 20:49:15;;;;;;;9.43;7.97;;;14.60;99.90;;;;;;4589997;19;20536;-30
2023/04/14 20:50:48;;;;;;;10.18;7.80;;;14.60;99.90;;;;;;4590650;19;20011;-29
2023/04/14 20:52:21;;;;;;;13.43;9.33;;;14.60;99.90;;;;;;4589596;19;20070;-30
2023/04/14 20:53:54;;;;;;;9.37;8.20;;;14.70;99.90;;;;;;4586734;19;20026;-29
2023/04/14 20:55:26;;;;;;;14.17;9.37;;;14.70;99.90;;;;;;4586714;19;20018;-30
2023/04/14 20:57:02;;;;;;;10.80;9.13;;;14.70;99.90;;;;;;4588369;19;20492;-30
2023/04/14 20:58:33;;;;;;;15.43;9.60;;;14.70;99.90;;;;;;4587156;19;20094;-31
2023/04/14 21:00:09;;;;;;;9.50;8.07;;;14.80;99.90;;;;;;4589961;19;20006;-30
2023/04/14 21:01:41;;;;;;;11.73;8.00;;;14.70;99.90;;;;;;4590208;19;20413;-30
2023/04/14 21:03:12;;;;;;;11.87;9.27;;;14.70;99.90;;;;;;4590771;19;20364;-30
2023/04/14 21:04:46;;;;;;;10.10;8.30;;;14.80;99.90;;;;;;4589261;19;20021;-30
2023/04/14 21:06:18;;;;;;;10.17;8.60;;;14.80;99.90;;;;;;4589666;19;20022;-30
2023/04/14 21:07:50;;;;;;;13.10;8.43;;;14.80;99.90;;;;;;4590394;19;20021;-30
2023/04/14 21:22:28;;;;;;;10.33;7.80;;;14.70;99.90;;;;;;4591782;19;19994;-30
2023/04/14 21:24:01;;;;;;;12.07;8.95;;;14.70;99.90;;;;;;4590498;19;20018;-30
2023/04/14 21:25:33;;;;;;;10.73;8.17;;;14.70;99.90;;;;;;4590730;19;20014;-30
2023/04/14 21:27:04;;;;;;;9.60;7.82;;;14.70;99.90;;;;;;4592510;19;20043;-30
2023/04/14 21:28:35;;;;;;;10.93;9.60;;;14.70;99.90;;;;;;4589281;19;20018;-30
2023/04/14 21:30:08;;;;;;;10.53;9.00;;;14.60;99.90;;;;;;4589563;19;20006;-30
2023/04/14 21:31:40;;;;;;;11.93;8.83;;;14.60;99.90;;;;;;4588798;19;20015;-30
2023/04/14 21:33:12;;;;;;;9.93;8.63;;;14.60;99.90;;;;;;4589116;19;20351;-30
2023/04/14 21:34:44;;;;;;;12.50;9.23;;;14.60;99.90;;;;;;4590369;19;20025;-30
2023/04/14 21:36:15;;;;;;;;;;;14.60;99.90;;;;;;4590861;19;20022;-30
2023/04/14 21:37:47;;;;;;;9.60;7.95;;;14.60;99.90;;;;;;4590040;19;20332;-30
2023/04/14 21:39:19;;;;;;;9.98;7.85;;;14.50;99.90;;;;;;4590241;19;20058;-30
2023/04/14 21:40:51;;;;;;;10.57;8.90;;;14.60;99.90;;;;;;4590271;19;20029;-30
2023/04/14 21:42:22;;;;;;;10.43;9.23;;;14.60;99.90;;;;;;4590458;19;20018;-30
2023/04/14 21:43:54;;;;;;;12.45;8.70;;;14.50;99.90;;;;;;4589771;19;20011;-30
2023/04/14 21:45:27;;;;;;;11.27;8.53;;;14.60;99.90;;;;;;4589524;19;20018;-30
2023/04/14 21:46:58;;;;;;;;;;;14.60;99.90;;;;;;4590273;19;20010;-30
2023/04/14 21:48:30;;;;;;;10.73;7.63;;;14.50;99.90;;;;;;4588612;19;19919;-30
2023/04/14 21:50:03;;;;;;;9.20;7.80;;;14.60;99.90;;;;;;4588510;19;20024;-30
2023/04/14 21:51:34;;;;;;;11.35;8.77;;;14.60;99.90;;;;;;4589469;19;20042;-30
2023/04/14 21:53:05;;;;;;;10.25;8.55;;;14.60;99.90;;;;;;4590300;19;20484;-30
2023/04/14 21:54:40;;;;;;;10.10;8.98;;;14.60;99.90;;;;;;4590643;19;20070;-30
2023/04/14 21:56:12;;;;;;;11.27;8.00;;;14.60;99.90;;;;;;4588630;19;20014;-30
2023/04/14 21:57:44;;;;;;;11.27;8.63;;;14.60;99.90;;;;;;4590696;19;20010;-30
2023/04/14 21:59:16;;;;;;;;;;;14.60;99.90;;;;;;4591426;19;20006;-30
2023/04/14 22:00:49;;;;;;;9.90;8.70;;;14.60;99.90;;;;;;4590274;19;19935;-30
2023/04/14 22:02:21;;;;;;;10.40;8.60;;;14.60;99.90;;;;;;4590511;19;20066;-30
2023/04/14 22:03:53;;;;;;;12.27;9.30;;;14.60;99.90;;;;;;4591562;19;20480;-30
2023/04/14 22:05:25;;;;;;;9.47;7.90;;;14.50;99.90;;;;;;4589763;19;20032;-30
2023/04/14 22:06:56;;;;;;;10.10;8.10;;;14.60;99.90;;;;;;4591306;19;20007;-30
2023/04/14 22:08:27;;;;;;;;;;;14.60;99.90;;;;;;4591404;19;20030;-30
2023/04/14 22:09:59;;;;;;;10.07;8.10;;;14.60;99.90;;;;;;4588723;19;20337;-30
2023/04/14 22:11:32;;;;;;;9.57;8.30;;;14.50;99.90;;;;;;4589210;19;20022;-30
2023/04/14 22:13:03;;;;;;;11.15;8.48;;;14.50;99.90;;;;;;4589213;19;20022;-30
2023/04/14 22:14:34;;;;;;;10.43;7.85;;;14.50;99.90;;;;;;4591167;19;20023;-30
2023/04/14 22:16:06;;;;;;;12.18;8.50;;;14.50;99.90;;;;;;4592021;19;20102;-30
2023/04/14 22:17:40;;;;;;;9.67;8.47;;;14.50;99.90;;;;;;4591316;19;20014;-30
2023/04/14 22:19:11;;;;;;;9.70;7.87;;;14.50;99.90;;;;;;4591242;19;20025;-30
2023/04/14 22:20:44;;;;;;;9.93;7.67;;;14.50;99.90;;;;;;4588522;19;20010;-30
2023/04/14 22:22:17;;;;;;;10.20;7.83;;;14.60;99.90;;;;;;4587725;19;20002;-30
2023/04/14 22:23:50;;;;;;;11.10;8.00;;;14.60;99.90;;;;;;4587370;19;20041;-30
2023/04/14 22:25:22;;;;;;;13.57;8.38;;;14.60;99.90;;;;;;4586582;19;20022;-30
2023/04/14 22:26:53;;;;;;;8.90;7.85;;;14.60;99.90;;;;;;4589218;19;20463;-30
2023/04/14 22:28:26;;;;;;;11.13;8.65;;;14.60;99.90;;;;;;4590146;19;20014;-30
2023/04/14 22:29:57;;;;;;;11.63;8.33;;;14.60;99.90;;;;;;4589995;19;20464;-30
2023/04/14 22:31:28;;;;;;;11.82;8.55;;;14.50;99.90;;;;;;4587020;19;20041;-30
2023/04/14 22:33:00;;;;;;;10.57;8.52;;;14.50;99.90;;;;;;4589559;19;20336;-30
2023/04/14 22:34:32;;;;;;;10.93;8.17;;;14.60;99.90;;;;;;4591210;19;20348;-30
2023/04/14 22:36:05;;;;;;;9.73;8.63;;;14.50;99.90;;;;;;4593015;19;20002;-30
2023/04/14 22:37:36;;;;;;;9.93;8.67;;;14.50;99.90;;;;;;4592885;19;20017;-30
2023/04/14 22:39:08;;;;;;;12.57;8.93;;;14.50;99.90;;;;;;4593639;19;20011;-30
2023/04/14 22:40:41;;;;;;;10.80;8.37;;;14.50;99.90;;;;;;4593200;19;20010;-30
2023/04/14 22:42:14;;;;;;;10.40;7.83;;;14.50;99.90;;;;;;4593214;19;20105;-30
2023/04/14 22:43:47;;;;;;;12.90;8.70;;;14.50;99.90;;;;;;4593304;19;20011;-31
2023/04/14 22:45:20;;;;;;;9.97;7.97;;;14.50;99.90;;;;;;4592919;19;20441;-30
2023/04/14 22:46:51;;;;;;;12.05;9.05;;;14.50;99.90;;;;;;4592139;19;20371;-30
2023/04/14 22:48:23;;;;;;;10.10;8.23;;;14.50;99.90;;;;;;4591028;19;20350;-30
2023/04/14 22:49:54;;;;;;;13.85;7.72;;;14.50;99.90;;;;;;4592253;19;20031;-30
2023/04/14 22:51:26;;;;;;;10.87;8.80;;;14.50;99.90;;;;;;4592966;19;20042;-30
2023/04/14 22:52:58;;;;;;;10.75;8.80;;;14.50;99.90;;;;;;4593671;19;20013;-30
2023/04/14 22:54:29;;;;;;;9.20;8.20;;;14.50;99.90;;;;;;4591779;19;20018;-30
2023/04/14 22:56:00;;;;;;;10.70;7.90;;;14.50;99.90;;;;;;4592808;19;20273;-30
2023/04/14 22:57:32;;;;;;;9.32;7.82;;;14.50;99.90;;;;;;4593770;19;20006;-30
2023/04/14 22:59:03;;;;;;;10.10;8.52;;;14.50;99.90;;;;;;4593140;19;20033;-30
2023/04/14 23:00:34;;;;;;;11.05;8.75;;;14.50;99.90;;;;;;4592163;19;20368;-30
2023/04/14 23:02:06;;;;;;;10.32;9.32;;;14.60;99.90;;;;;;4593043;19;20018;-30
2023/04/14 23:03:37;;;;;;;13.23;9.68;;;14.50;99.90;;;;;;4593554;19;20070;-30
2023/04/14 23:05:11;;;;;;;11.35;8.82;;;14.50;99.90;;;;;;4592946;19;20397;-30
2023/04/14 23:06:42;;;;;;;10.07;8.40;;;14.50;99.90;;;;;;4591666;19;20010;-30
2023/04/14 23:08:14;;;;;;;8.73;7.78;;;14.50;99.90;;;;;;4592623;19;20025;-30
2023/04/14 23:09:45;;;;;;;10.93;9.10;;;14.50;99.90;;;;;;4591407;19;20527;-30
2023/04/14 23:11:18;;;;;;;11.18;8.70;;;14.50;99.90;;;;;;4592714;19;20015;-30
2023/04/14 23:12:49;;;;;;;12.97;9.93;;;14.50;99.90;;;;;;4592327;19;20031;-30
2023/04/14 23:14:20;;;;;;;10.10;8.23;;;14.40;99.90;;;;;;4591935;19;20014;-30
2023/04/14 23:15:51;;;;;;;12.23;8.80;;;14.40;99.90;;;;;;4593224;19;20360;-30
2023/04/14 23:17:24;;;;;;;9.50;8.03;;;14.40;99.90;;;;;;4593111;19;20015;-30
2023/04/14 23:18:56;;;;;;;14.47;10.03;;;14.40;99.90;;;;;;4591660;19;20029;-30
2023/04/14 23:20:29;;;;;;;10.48;9.35;;;14.40;99.90;;;;;;4591714;19;20373;-30
2023/04/14 23:22:01;;;;;;;10.67;9.10;;;14.40;99.90;;;;;;4593010;19;20040;-30
2023/04/14 23:23:32;;;;;;;11.97;9.30;;;14.40;99.90;;;;;;4592171;19;20038;-30
2023/04/14 23:25:06;;;;;;;10.60;8.57;;;14.40;99.90;;;;;;4593060;19;20018;-30
2023/04/14 23:26:38;;;;;;;12.10;9.50;;;14.40;99.90;;;;;;4592338;19;20014;-30
2023/04/14 23:28:11;;;;;;;12.13;9.63;;;14.40;99.90;;;;;;4592719;19;20479;-30
2023/04/14 23:29:42;;;;;;;12.00;8.80;;;14.40;99.90;;;;;;4592341;19;20011;-30
2023/04/14 23:31:16;;;;;;;11.47;8.93;;;14.50;99.90;;;;;;4592682;19;20023;-30
2023/04/14 23:32:48;;;;;;;10.87;9.10;;;14.40;99.90;;;;;;4591383;19;20010;-30
2023/04/14 23:34:20;;;;;;;10.60;8.97;;;14.40;99.90;;;;;;4591105;19;20006;-30
2023/04/14 23:35:51;;;;;;;10.32;8.75;;;14.40;99.90;;;;;;4593139;19;20003;-30
2023/04/14 23:37:22;;;;;;;12.60;9.93;;;14.40;99.90;;;;;;4592902;19;20014;-30
2023/04/14 23:38:54;;;;;;;10.48;9.02;;;14.40;99.90;;;;;;4592280;19;20020;-30
2023/04/14 23:40:26;;;;;;;10.43;8.43;;;14.40;99.90;;;;;;4591197;19;20002;-30
2023/04/14 23:41:58;;;;;;;11.93;9.23;;;14.40;99.90;;;;;;4589943;19;20468;-29
2023/04/14 23:43:30;;;;;;;10.83;8.73;;;14.40;99.90;;;;;;4590811;19;20021;-31
2023/04/14 23:45:06;;;;;;;10.67;9.33;;;14.40;99.90;;;;;;4590121;19;20010;-29
2023/04/14 23:46:38;;;;;;;11.80;8.73;;;14.40;99.90;;;;;;4593435;19;20011;-30
2023/04/14 23:48:11;;;;;;;10.13;8.90;;;14.50;99.90;;;;;;4593129;19;20522;-30
2023/04/14 23:49:42;;;;;;;10.85;9.75;;;14.50;99.90;;;;;;4592178;19;20010;-30
2023/04/14 23:51:15;;;;;;;12.82;8.95;;;14.50;99.90;;;;;;4593164;19;20485;-30
2023/04/14 23:52:46;;;;;;;11.25;9.20;;;14.60;99.90;;;;;;4592607;19;20014;-30
2023/04/14 23:54:18;;;;;;;9.57;8.45;;;14.80;99.90;;;;;;4593044;19;20482;-30
2023/04/14 23:55:49;;;;;;;12.35;8.48;;;14.90;99.90;;;;;;4593997;19;20467;-30
2023/04/14 23:57:23;;;;;;;9.40;8.02;;;15.00;99.90;;;;;;4592029;19;20037;-30
2023/04/14 23:58:55;;;;;;;10.93;7.82;;;15.20;99.90;;;;;;4592327;19;20015;-31
